D/T METAR WX W/DIR W/SPE G/SPE TEMP DEWP
27/05/19 07:50 EGYM 270650Z AUTO 25012KT 9999 FEW060/// BKN160/// 12/08 Q1009 WSW (250°) 13.8mph 12°C 8°C
27/05/19 06:50 EGYM 270550Z AUTO 24008KT 9999 FEW060/// SCT190/// 11/08 Q1009 WSW (240°) 9.2mph 11°C 8°C
27/05/19 05:50 EGYM 270450Z AUTO 23004KT 9999 NCD 08/07 Q1009 SW (230°) 4.6mph 8°C 7°C
27/05/19 04:50 EGYM 270350Z AUTO 21007KT 9999 NCD 08/06 Q1009 SSW (210°) 8.1mph 8°C 6°C
27/05/19 03:50 EGYM 270250Z AUTO 22005KT 9999 NCD 07/05 Q1009 SW (220°) 5.8mph 7°C 5°C
27/05/19 02:50 EGYM 270150Z AUTO 23006KT 9999 NCD 09/06 Q1009 SW (230°) 6.9mph 9°C 6°C
27/05/19 01:50 EGYM 270050Z AUTO 26007KT 9999 NCD 09/06 Q1010 W (260°) 8.1mph 9°C 6°C
27/05/19 00:50 EGYM 262350Z AUTO 25008KT 9999 NCD 10/06 Q1010 WSW (250°) 9.2mph 10°C 6°C
26/05/19 23:50 EGYM 262250Z AUTO 25008KT 9999 NCD 10/06 Q1010 WSW (250°) 9.2mph 10°C 6°C
26/05/19 22:50 EGYM 262150Z AUTO 27008KT 9999 NCD 12/06 Q1010 W (270°) 9.2mph 12°C 6°C
26/05/19 21:50 EGYM 262050Z AUTO 28010KT 9999 NCD 13/07 Q1010 W (280°) 11.5mph 13°C 7°C
26/05/19 20:50 EGYM 261950Z AUTO 30011KT 9999 FEW190/// 15/07 Q1010 WNW (300°) 12.7mph 15°C 7°C
26/05/19 19:50 EGYM 261850Z AUTO 30011KT 9999 BKN180/// 16/08 Q1009 WNW (300°) 12.7mph 16°C 8°C
26/05/19 18:50 EGYM 261750Z AUTO 29018KT 9999 FEW023/// SCT033/// 17/11 Q1009 WNW (290°) 20.7mph 17°C 11°C
26/05/19 17:50 EGYM 261650Z AUTO 28012KT 9999 SCT031/// SCT038/// BKN050/// 17/13 Q1009 W (280°) 13.8mph 17°C 13°C
26/05/19 16:50 EGYM 261550Z AUTO 29013KT 9999 FEW023/// BKN045/// 17/13 Q1009 RERA WNW (290°) 15.0mph 17°C 13°C
26/05/19 15:50 EGYM 261450Z AUTO 25016KT 9999 FEW021/// BKN060/// 19/14 Q1009 WSW (250°) 18.4mph 19°C 14°C
26/05/19 14:50 EGYM 261350Z AUTO 24015KT 9999 BKN018/// BKN034/// 18/16 Q1009 RERA WSW (240°) 17.3mph 18°C 16°C
26/05/19 13:50 EGYM 261250Z AUTO 24009KT 9999 -RA SCT020/// BKN024/// 18/16 Q1009 -RA WSW (240°) 10.4mph 18°C 16°C
26/05/19 12:50 EGYM 261150Z AUTO 24011KT 9999 -RA FEW015/// BKN021/// 18/16 Q1010 -RA WSW (240°) 12.7mph 18°C 16°C
26/05/19 11:50 EGYM 261050Z AUTO 24016KT 9999 SCT024/// SCT035/// BKN080/// 20/14 Q1010 WSW (240°) 18.4mph 20°C 14°C
26/05/19 10:50 EGYM 260950Z AUTO 23017KT 9999 BKN060/// BKN110/// 20/14 Q1011 SW (230°) 19.6mph 20°C 14°C
26/05/19 09:50 EGYM 260850Z AUTO 23012KT 9999 OVC050/// 17/13 Q1011 SW (230°) 13.8mph 17°C 13°C
26/05/19 08:50 EGYM 260750Z AUTO 23011KT 9999 OVC048/// 16/12 Q1011 SW (230°) 12.7mph 16°C 12°C
26/05/19 07:50 EGYM 260650Z AUTO 22011KT 9999 OVC050/// 16/12 Q1012 SW (220°) 12.7mph 16°C 12°C
26/05/19 06:50 EGYM 260550Z AUTO 22008KT 9999 OVC060/// 16/12 Q1012 SW (220°) 9.2mph 16°C 12°C
26/05/19 05:50 EGYM 260450Z AUTO 22008KT 9999 BKN070/// BKN190/// 15/12 Q1012 SW (220°) 9.2mph 15°C 12°C
26/05/19 04:50 EGYM 260350Z AUTO 22008KT 9999 OVC060/// 15/11 Q1013 SW (220°) 9.2mph 15°C 11°C
26/05/19 03:50 EGYM 260250Z AUTO 24008KT 9999 OVC060/// 15/11 Q1013 WSW (240°) 9.2mph 15°C 11°C
26/05/19 02:50 EGYM 260150Z AUTO 25006KT 9999 OVC060/// 15/12 Q1014 WSW (250°) 6.9mph 15°C 12°C
26/05/19 01:50 EGYM 260050Z AUTO 19004KT 9999 FEW038/// OVC060/// 15/12 Q1014 S (190°) 4.6mph 15°C 12°C
26/05/19 00:50 EGYM 252350Z AUTO 21002KT 9999 SCT038/// BKN050/// 16/12 Q1015 SSW (210°) 2.3mph 16°C 12°C
25/05/19 23:50 EGYM 252250Z AUTO 27008KT 9999 BKN033/// BKN041/// 16/11 Q1016 RERA W (270°) 9.2mph 16°C 11°C
25/05/19 22:50 EGYM 252150Z AUTO 29005KT 9999 OVC041/// 17/10 Q1016 RERA WNW (290°) 5.8mph 17°C 10°C
25/05/19 21:50 EGYM 252050Z AUTO 30003KT 9999 OVC060/// 16/09 Q1016 WNW (300°) 3.5mph 16°C 9°C
25/05/19 20:50 EGYM 251950Z AUTO 27005KT 9999 BKN080/// BKN180/// 17/09 Q1016 W (270°) 5.8mph 17°C 9°C
25/05/19 19:50 EGYM 251850Z AUTO 27005KT 9999 FEW050/// OVC110/// 19/09 Q1016 W (270°) 5.8mph 19°C 9°C
25/05/19 18:50 EGYM 251750Z AUTO 27009KT 9999 BKN110/// 19/08 Q1016 W (270°) 10.4mph 19°C 8°C
25/05/19 17:50 EGYM 251650Z AUTO 27005KT 9999 FEW120/// 20/08 Q1016 W (270°) 5.8mph 20°C 8°C
25/05/19 16:50 EGYM 251550Z AUTO 29008KT 9999 SCT140/// 20/07 Q1016 WNW (290°) 9.2mph 20°C 7°C
25/05/19 15:50 EGYM 251450Z AUTO 27007KT 9999 BKN160/// SCT220/// 20/08 Q1017 W (270°) 8.1mph 20°C 8°C
25/05/19 14:50 EGYM 251350Z AUTO 31005KT 9999 FEW046/// 20/09 Q1017 NW (310°) 5.8mph 20°C 9°C
25/05/19 13:50 EGYM 251250Z AUTO 31005KT 9999 FEW043/// 19/07 Q1017 NW (310°) 5.8mph 19°C 7°C
25/05/19 12:50 EGYM 251150Z AUTO 32007KT 9999 FEW039/// 18/07 Q1018 NW (320°) 8.1mph 18°C 7°C
25/05/19 11:50 EGYM 251050Z AUTO 29007KT 9999 FEW028/// SCT033/// 17/09 Q1018 WNW (290°) 8.1mph 17°C 9°C
25/05/19 10:50 EGYM 250950Z AUTO 31008KT 9999 FEW024/// 16/09 Q1018 NW (310°) 9.2mph 16°C 9°C
25/05/19 09:50 EGYM 250850Z AUTO 32007KT 9999 FEW020/// BKN030/// 15/10 Q1018 NW (320°) 8.1mph 15°C 10°C
25/05/19 08:50 EGYM 250750Z AUTO 31008KT 9999 SCT018/// 15/10 Q1018 NW (310°) 9.2mph 15°C 10°C